sensor_id;sensor_type;location;lat;lon;timestamp;P1;durP1;ratioP1;P2;durP2;ratioP2
9657;SDS011;4867;48.112;11.622;2024-02-26T00:01:04;5.67;;;5.17;;
9657;SDS011;4867;48.112;11.622;2024-02-26T00:03:33;6.17;;;4.50;;
9657;SDS011;4867;48.112;11.622;2024-02-26T00:06:02;5.40;;;4.90;;
9657;SDS011;4867;48.112;11.622;2024-02-26T00:08:30;6.23;;;4.90;;
9657;SDS011;4867;48.112;11.622;2024-02-26T00:11:02;5.60;;;5.07;;
9657;SDS011;4867;48.112;11.622;2024-02-26T00:13:29;5.27;;;4.77;;
9657;SDS011;4867;48.112;11.622;2024-02-26T00:15:57;5.30;;;4.80;;
9657;SDS011;4867;48.112;11.622;2024-02-26T00:18:24;5.20;;;4.70;;
9657;SDS011;4867;48.112;11.622;2024-02-26T00:20:51;7.20;;;5.10;;
9657;SDS011;4867;48.112;11.622;2024-02-26T00:23:19;6.00;;;5.10;;
9657;SDS011;4867;48.112;11.622;2024-02-26T00:25:47;5.50;;;5.00;;
9657;SDS011;4867;48.112;11.622;2024-02-26T00:28:15;5.27;;;4.77;;
9657;SDS011;4867;48.112;11.622;2024-02-26T00:30:43;6.33;;;5.23;;
9657;SDS011;4867;48.112;11.622;2024-02-26T00:33:13;5.53;;;5.03;;
9657;SDS011;4867;48.112;11.622;2024-02-26T00:35:43;6.00;;;4.90;;
9657;SDS011;4867;48.112;11.622;2024-02-26T00:38:11;5.47;;;4.90;;
9657;SDS011;4867;48.112;11.622;2024-02-26T00:40:38;5.00;;;4.50;;
9657;SDS011;4867;48.112;11.622;2024-02-26T00:43:07;5.63;;;4.80;;
9657;SDS011;4867;48.112;11.622;2024-02-26T00:45:35;5.37;;;4.50;;
9657;SDS011;4867;48.112;11.622;2024-02-26T00:48:03;5.10;;;4.60;;
9657;SDS011;4867;48.112;11.622;2024-02-26T00:50:34;4.90;;;4.30;;
9657;SDS011;4867;48.112;11.622;2024-02-26T00:53:04;4.90;;;4.40;;
9657;SDS011;4867;48.112;11.622;2024-02-26T00:55:32;5.13;;;4.50;;
9657;SDS011;4867;48.112;11.622;2024-02-26T00:57:59;4.83;;;4.23;;
9657;SDS011;4867;48.112;11.622;2024-02-26T01:00:27;6.67;;;4.40;;
9657;SDS011;4867;48.112;11.622;2024-02-26T01:02:54;5.00;;;4.50;;
9657;SDS011;4867;48.112;11.622;2024-02-26T01:05:22;5.17;;;4.20;;
9657;SDS011;4867;48.112;11.622;2024-02-26T01:07:49;4.07;;;3.70;;
9657;SDS011;4867;48.112;11.622;2024-02-26T01:10:16;4.33;;;3.93;;
9657;SDS011;4867;48.112;11.622;2024-02-26T01:12:44;4.50;;;4.10;;
9657;SDS011;4867;48.112;11.622;2024-02-26T01:15:11;5.40;;;4.17;;
9657;SDS011;4867;48.112;11.622;2024-02-26T01:17:39;5.63;;;3.93;;
9657;SDS011;4867;48.112;11.622;2024-02-26T01:20:07;4.47;;;4.07;;
9657;SDS011;4867;48.112;11.622;2024-02-26T01:22:36;4.40;;;4.00;;
9657;SDS011;4867;48.112;11.622;2024-02-26T01:25:03;4.27;;;3.80;;
9657;SDS011;4867;48.112;11.622;2024-02-26T01:27:31;4.07;;;3.70;;
9657;SDS011;4867;48.112;11.622;2024-02-26T01:29:58;4.70;;;4.20;;
9657;SDS011;4867;48.112;11.622;2024-02-26T01:32:26;5.20;;;4.47;;
9657;SDS011;4867;48.112;11.622;2024-02-26T01:34:54;4.50;;;4.10;;
9657;SDS011;4867;48.112;11.622;2024-02-26T01:37:22;4.80;;;4.40;;
9657;SDS011;4867;48.112;11.622;2024-02-26T01:39:49;4.53;;;3.93;;
9657;SDS011;4867;48.112;11.622;2024-02-26T01:42:17;4.37;;;4.03;;
9657;SDS011;4867;48.112;11.622;2024-02-26T01:44:44;4.50;;;4.10;;
9657;SDS011;4867;48.112;11.622;2024-02-26T01:47:12;4.70;;;4.27;;
9657;SDS011;4867;48.112;11.622;2024-02-26T01:49:40;4.73;;;4.10;;
9657;SDS011;4867;48.112;11.622;2024-02-26T01:52:09;4.40;;;4.00;;
9657;SDS011;4867;48.112;11.622;2024-02-26T01:54:38;4.80;;;4.40;;
9657;SDS011;4867;48.112;11.622;2024-02-26T01:57:07;4.60;;;4.20;;
9657;SDS011;4867;48.112;11.622;2024-02-26T01:59:35;4.77;;;4.10;;
9657;SDS011;4867;48.112;11.622;2024-02-26T02:02:03;5.13;;;3.90;;
9657;SDS011;4867;48.112;11.622;2024-02-26T02:04:34;4.17;;;3.83;;
9657;SDS011;4867;48.112;11.622;2024-02-26T02:07:03;4.10;;;3.70;;
9657;SDS011;4867;48.112;11.622;2024-02-26T02:09:35;4.10;;;3.70;;
9657;SDS011;4867;48.112;11.622;2024-02-26T02:12:03;5.13;;;4.00;;
9657;SDS011;4867;48.112;11.622;2024-02-26T02:14:33;4.73;;;4.23;;
9657;SDS011;4867;48.112;11.622;2024-02-26T02:17:00;4.97;;;3.97;;
9657;SDS011;4867;48.112;11.622;2024-02-26T02:19:28;4.37;;;3.97;;
9657;SDS011;4867;48.112;11.622;2024-02-26T02:21:55;5.33;;;4.13;;
9657;SDS011;4867;48.112;11.622;2024-02-26T02:24:24;4.30;;;3.90;;
9657;SDS011;4867;48.112;11.622;2024-02-26T02:26:52;4.33;;;3.90;;
9657;SDS011;4867;48.112;11.622;2024-02-26T02:29:20;11.47;;;9.40;;
9657;SDS011;4867;48.112;11.622;2024-02-26T02:31:47;8.53;;;6.70;;
9657;SDS011;4867;48.112;11.622;2024-02-26T02:34:16;5.47;;;4.97;;
9657;SDS011;4867;48.112;11.622;2024-02-26T02:36:53;4.70;;;4.23;;
9657;SDS011;4867;48.112;11.622;2024-02-26T02:39:21;4.63;;;4.23;;
9657;SDS011;4867;48.112;11.622;2024-02-26T02:41:49;4.40;;;4.00;;
9657;SDS011;4867;48.112;11.622;2024-02-26T02:44:17;3.87;;;3.47;;
9657;SDS011;4867;48.112;11.622;2024-02-26T02:46:44;5.00;;;4.50;;
9657;SDS011;4867;48.112;11.622;2024-02-26T02:49:15;4.57;;;4.17;;
9657;SDS011;4867;48.112;11.622;2024-02-26T02:51:43;4.20;;;3.80;;
9657;SDS011;4867;48.112;11.622;2024-02-26T02:54:11;6.03;;;4.27;;
9657;SDS011;4867;48.112;11.622;2024-02-26T02:56:38;4.20;;;3.77;;
9657;SDS011;4867;48.112;11.622;2024-02-26T02:59:06;4.47;;;4.07;;
9657;SDS011;4867;48.112;11.622;2024-02-26T03:01:34;5.07;;;4.10;;
9657;SDS011;4867;48.112;11.622;2024-02-26T03:04:01;4.50;;;4.10;;
9657;SDS011;4867;48.112;11.622;2024-02-26T03:06:29;4.40;;;4.00;;
9657;SDS011;4867;48.112;11.622;2024-02-26T03:08:57;4.27;;;3.87;;
9657;SDS011;4867;48.112;11.622;2024-02-26T03:11:24;5.60;;;3.70;;
9657;SDS011;4867;48.112;11.622;2024-02-26T03:13:53;4.40;;;3.57;;
9657;SDS011;4867;48.112;11.622;2024-02-26T03:16:20;3.60;;;3.30;;
9657;SDS011;4867;48.112;11.622;2024-02-26T03:18:48;4.27;;;3.87;;
9657;SDS011;4867;48.112;11.622;2024-02-26T03:21:15;4.53;;;3.87;;
9657;SDS011;4867;48.112;11.622;2024-02-26T03:23:43;4.20;;;3.80;;
9657;SDS011;4867;48.112;11.622;2024-02-26T03:26:11;3.70;;;3.37;;
9657;SDS011;4867;48.112;11.622;2024-02-26T03:28:41;4.70;;;4.20;;
9657;SDS011;4867;48.112;11.622;2024-02-26T03:31:08;5.13;;;4.10;;
9657;SDS011;4867;48.112;11.622;2024-02-26T03:33:39;4.50;;;3.50;;
9657;SDS011;4867;48.112;11.622;2024-02-26T03:36:07;3.70;;;3.40;;
9657;SDS011;4867;48.112;11.622;2024-02-26T03:38:34;4.13;;;3.77;;
9657;SDS011;4867;48.112;11.622;2024-02-26T03:41:03;3.87;;;3.47;;
9657;SDS011;4867;48.112;11.622;2024-02-26T03:43:31;3.90;;;3.50;;
9657;SDS011;4867;48.112;11.622;2024-02-26T03:45:58;4.30;;;3.50;;
9657;SDS011;4867;48.112;11.622;2024-02-26T03:48:27;4.20;;;3.80;;
9657;SDS011;4867;48.112;11.622;2024-02-26T03:50:54;4.23;;;3.83;;
9657;SDS011;4867;48.112;11.622;2024-02-26T03:53:22;3.73;;;3.43;;
9657;SDS011;4867;48.112;11.622;2024-02-26T03:55:49;4.13;;;3.83;;
9657;SDS011;4867;48.112;11.622;2024-02-26T03:58:18;3.77;;;3.47;;
9657;SDS011;4867;48.112;11.622;2024-02-26T04:00:46;3.70;;;3.23;;
9657;SDS011;4867;48.112;11.622;2024-02-26T04:03:17;4.03;;;3.63;;
9657;SDS011;4867;48.112;11.622;2024-02-26T04:05:44;3.60;;;3.30;;
9657;SDS011;4867;48.112;11.622;2024-02-26T04:08:12;3.80;;;3.40;;
9657;SDS011;4867;48.112;11.622;2024-02-26T04:10:39;4.93;;;3.90;;
9657;SDS011;4867;48.112;11.622;2024-02-26T04:13:07;4.20;;;3.80;;
9657;SDS011;4867;48.112;11.622;2024-02-26T04:15:35;4.30;;;3.90;;
9657;SDS011;4867;48.112;11.622;2024-02-26T04:18:02;4.63;;;4.13;;
9657;SDS011;4867;48.112;11.622;2024-02-26T04:20:30;4.20;;;3.80;;
9657;SDS011;4867;48.112;11.622;2024-02-26T04:22:58;4.03;;;3.60;;
9657;SDS011;4867;48.112;11.622;2024-02-26T04:25:25;3.97;;;3.63;;
9657;SDS011;4867;48.112;11.622;2024-02-26T04:27:53;4.83;;;3.60;;
9657;SDS011;4867;48.112;11.622;2024-02-26T04:30:21;4.13;;;3.73;;
9657;SDS011;4867;48.112;11.622;2024-02-26T04:32:49;3.80;;;3.30;;
9657;SDS011;4867;48.112;11.622;2024-02-26T04:35:16;3.70;;;3.40;;
9657;SDS011;4867;48.112;11.622;2024-02-26T04:37:44;3.73;;;3.43;;
9657;SDS011;4867;48.112;11.622;2024-02-26T04:40:11;3.90;;;3.50;;
9657;SDS011;4867;48.112;11.622;2024-02-26T04:42:39;4.27;;;3.57;;
9657;SDS011;4867;48.112;11.622;2024-02-26T04:45:06;6.13;;;4.00;;
9657;SDS011;4867;48.112;11.622;2024-02-26T04:47:35;4.20;;;3.80;;
9657;SDS011;4867;48.112;11.622;2024-02-26T04:50:03;3.33;;;3.03;;
9657;SDS011;4867;48.112;11.622;2024-02-26T04:52:31;4.90;;;3.73;;
9657;SDS011;4867;48.112;11.622;2024-02-26T04:54:58;4.33;;;3.47;;
9657;SDS011;4867;48.112;11.622;2024-02-26T04:57:26;4.03;;;3.30;;
9657;SDS011;4867;48.112;11.622;2024-02-26T04:59:54;3.43;;;3.13;;
9657;SDS011;4867;48.112;11.622;2024-02-26T05:02:22;4.07;;;3.63;;
9657;SDS011;4867;48.112;11.622;2024-02-26T05:04:50;3.30;;;3.00;;
9657;SDS011;4867;48.112;11.622;2024-02-26T05:07:17;3.83;;;3.47;;
9657;SDS011;4867;48.112;11.622;2024-02-26T05:09:46;4.03;;;3.63;;
9657;SDS011;4867;48.112;11.622;2024-02-26T05:12:16;4.03;;;3.63;;
9657;SDS011;4867;48.112;11.622;2024-02-26T05:14:43;4.83;;;3.13;;
9657;SDS011;4867;48.112;11.622;2024-02-26T05:17:11;4.77;;;3.00;;
9657;SDS011;4867;48.112;11.622;2024-02-26T05:19:38;4.87;;;3.40;;
9657;SDS011;4867;48.112;11.622;2024-02-26T05:22:06;3.90;;;3.10;;
9657;SDS011;4867;48.112;11.622;2024-02-26T05:24:33;3.73;;;3.30;;
9657;SDS011;4867;48.112;11.622;2024-02-26T05:27:01;3.50;;;3.20;;
9657;SDS011;4867;48.112;11.622;2024-02-26T05:29:28;4.40;;;3.43;;
9657;SDS011;4867;48.112;11.622;2024-02-26T05:31:56;4.77;;;3.20;;
9657;SDS011;4867;48.112;11.622;2024-02-26T05:34:23;4.53;;;3.30;;
9657;SDS011;4867;48.112;11.622;2024-02-26T05:36:50;5.87;;;3.63;;
9657;SDS011;4867;48.112;11.622;2024-02-26T05:39:18;4.30;;;2.97;;
9657;SDS011;4867;48.112;11.622;2024-02-26T05:41:47;3.57;;;3.17;;
9657;SDS011;4867;48.112;11.622;2024-02-26T05:44:16;4.80;;;3.27;;
9657;SDS011;4867;48.112;11.622;2024-02-26T05:46:43;4.33;;;3.47;;
9657;SDS011;4867;48.112;11.622;2024-02-26T05:49:11;5.80;;;3.87;;
9657;SDS011;4867;48.112;11.622;2024-02-26T05:51:38;4.13;;;3.73;;
9657;SDS011;4867;48.112;11.622;2024-02-26T05:54:05;4.13;;;3.60;;
9657;SDS011;4867;48.112;11.622;2024-02-26T05:56:35;4.00;;;3.60;;
9657;SDS011;4867;48.112;11.622;2024-02-26T05:59:02;4.37;;;3.73;;
9657;SDS011;4867;48.112;11.622;2024-02-26T06:01:30;5.23;;;4.10;;
9657;SDS011;4867;48.112;11.622;2024-02-26T06:03:57;5.10;;;3.60;;
9657;SDS011;4867;48.112;11.622;2024-02-26T06:06:25;4.00;;;3.60;;
9657;SDS011;4867;48.112;11.622;2024-02-26T06:08:52;5.00;;;3.97;;
9657;SDS011;4867;48.112;11.622;2024-02-26T06:11:20;6.13;;;4.03;;
9657;SDS011;4867;48.112;11.622;2024-02-26T06:13:49;5.47;;;4.43;;
9657;SDS011;4867;48.112;11.622;2024-02-26T06:16:17;6.97;;;3.80;;
9657;SDS011;4867;48.112;11.622;2024-02-26T06:18:44;5.27;;;4.00;;
9657;SDS011;4867;48.112;11.622;2024-02-26T06:21:11;5.73;;;4.30;;
9657;SDS011;4867;48.112;11.622;2024-02-26T06:23:39;6.33;;;4.23;;
9657;SDS011;4867;48.112;11.622;2024-02-26T06:26:07;4.60;;;3.93;;
9657;SDS011;4867;48.112;11.622;2024-02-26T06:28:35;5.60;;;4.27;;
9657;SDS011;4867;48.112;11.622;2024-02-26T06:31:03;4.07;;;3.67;;
9657;SDS011;4867;48.112;11.622;2024-02-26T06:33:31;6.40;;;3.97;;
9657;SDS011;4867;48.112;11.622;2024-02-26T06:35:59;6.57;;;4.27;;
9657;SDS011;4867;48.112;11.622;2024-02-26T06:38:26;4.43;;;3.43;;
9657;SDS011;4867;48.112;11.622;2024-02-26T06:40:53;4.17;;;3.70;;
9657;SDS011;4867;48.112;11.622;2024-02-26T06:43:21;5.80;;;3.80;;
9657;SDS011;4867;48.112;11.622;2024-02-26T06:45:48;5.57;;;4.93;;
9657;SDS011;4867;48.112;11.622;2024-02-26T06:48:16;7.17;;;4.90;;
9657;SDS011;4867;48.112;11.622;2024-02-26T06:50:43;7.17;;;4.80;;
9657;SDS011;4867;48.112;11.622;2024-02-26T06:53:11;5.50;;;4.17;;
9657;SDS011;4867;48.112;11.622;2024-02-26T06:55:38;4.33;;;3.93;;
9657;SDS011;4867;48.112;11.622;2024-02-26T06:58:07;5.23;;;4.63;;
9657;SDS011;4867;48.112;11.622;2024-02-26T07:00:35;5.23;;;4.53;;
9657;SDS011;4867;48.112;11.622;2024-02-26T07:03:03;6.20;;;5.17;;
9657;SDS011;4867;48.112;11.622;2024-02-26T07:05:31;6.33;;;5.07;;
9657;SDS011;4867;48.112;11.622;2024-02-26T07:07:58;8.27;;;4.67;;
9657;SDS011;4867;48.112;11.622;2024-02-26T07:10:25;7.10;;;5.03;;
9657;SDS011;4867;48.112;11.622;2024-02-26T07:12:53;9.77;;;5.00;;
9657;SDS011;4867;48.112;11.622;2024-02-26T07:15:21;10.40;;;5.30;;
9657;SDS011;4867;48.112;11.622;2024-02-26T07:17:48;7.57;;;4.77;;
9657;SDS011;4867;48.112;11.622;2024-02-26T07:20:16;8.30;;;5.50;;
9657;SDS011;4867;48.112;11.622;2024-02-26T07:22:45;7.90;;;4.27;;
9657;SDS011;4867;48.112;11.622;2024-02-26T07:25:12;8.77;;;4.90;;
9657;SDS011;4867;48.112;11.622;2024-02-26T07:27:40;10.13;;;4.60;;
9657;SDS011;4867;48.112;11.622;2024-02-26T07:30:08;18.07;;;5.67;;
9657;SDS011;4867;48.112;11.622;2024-02-26T07:32:36;8.17;;;5.07;;
9657;SDS011;4867;48.112;11.622;2024-02-26T07:35:04;8.30;;;4.60;;
9657;SDS011;4867;48.112;11.622;2024-02-26T07:37:32;7.97;;;5.03;;
9657;SDS011;4867;48.112;11.622;2024-02-26T07:40:00;7.80;;;4.43;;
9657;SDS011;4867;48.112;11.622;2024-02-26T07:42:30;9.50;;;4.77;;
9657;SDS011;4867;48.112;11.622;2024-02-26T07:44:57;7.83;;;4.40;;
9657;SDS011;4867;48.112;11.622;2024-02-26T07:47:25;8.73;;;4.60;;
9657;SDS011;4867;48.112;11.622;2024-02-26T07:49:53;8.40;;;5.30;;
9657;SDS011;4867;48.112;11.622;2024-02-26T07:52:20;8.37;;;4.97;;
9657;SDS011;4867;48.112;11.622;2024-02-26T07:54:48;4.60;;;3.53;;
9657;SDS011;4867;48.112;11.622;2024-02-26T07:57:15;5.00;;;3.53;;
9657;SDS011;4867;48.112;11.622;2024-02-26T07:59:45;5.43;;;3.70;;
9657;SDS011;4867;48.112;11.622;2024-02-26T08:02:16;6.70;;;3.70;;
9657;SDS011;4867;48.112;11.622;2024-02-26T08:04:45;6.07;;;3.30;;
9657;SDS011;4867;48.112;11.622;2024-02-26T08:07:12;5.10;;;3.43;;
9657;SDS011;4867;48.112;11.622;2024-02-26T08:09:40;5.10;;;3.63;;
9657;SDS011;4867;48.112;11.622;2024-02-26T08:12:07;5.17;;;3.70;;
9657;SDS011;4867;48.112;11.622;2024-02-26T08:14:35;8.60;;;3.70;;
9657;SDS011;4867;48.112;11.622;2024-02-26T08:17:02;5.87;;;3.73;;
9657;SDS011;4867;48.112;11.622;2024-02-26T08:19:30;7.83;;;3.60;;
9657;SDS011;4867;48.112;11.622;2024-02-26T08:21:57;6.13;;;3.60;;
9657;SDS011;4867;48.112;11.622;2024-02-26T08:24:28;6.00;;;3.60;;
9657;SDS011;4867;48.112;11.622;2024-02-26T08:26:55;4.13;;;3.40;;
9657;SDS011;4867;48.112;11.622;2024-02-26T08:29:23;4.93;;;3.27;;
9657;SDS011;4867;48.112;11.622;2024-02-26T08:31:50;7.87;;;3.40;;
9657;SDS011;4867;48.112;11.622;2024-02-26T08:34:18;3.60;;;2.80;;
9657;SDS011;4867;48.112;11.622;2024-02-26T08:36:46;5.40;;;3.30;;
9657;SDS011;4867;48.112;11.622;2024-02-26T08:39:15;4.87;;;3.30;;
9657;SDS011;4867;48.112;11.622;2024-02-26T08:41:44;5.40;;;3.40;;
9657;SDS011;4867;48.112;11.622;2024-02-26T08:44:12;3.50;;;3.10;;
9657;SDS011;4867;48.112;11.622;2024-02-26T08:46:39;4.90;;;2.90;;
9657;SDS011;4867;48.112;11.622;2024-02-26T08:49:06;5.47;;;2.90;;
9657;SDS011;4867;48.112;11.622;2024-02-26T08:51:34;5.00;;;2.80;;
9657;SDS011;4867;48.112;11.622;2024-02-26T08:54:01;3.73;;;2.70;;
9657;SDS011;4867;48.112;11.622;2024-02-26T08:56:29;4.80;;;3.07;;
9657;SDS011;4867;48.112;11.622;2024-02-26T08:58:56;3.73;;;2.50;;
9657;SDS011;4867;48.112;11.622;2024-02-26T09:01:26;7.97;;;2.63;;
9657;SDS011;4867;48.112;11.622;2024-02-26T09:03:53;2.77;;;2.37;;
9657;SDS011;4867;48.112;11.622;2024-02-26T09:06:21;2.67;;;2.13;;
9657;SDS011;4867;48.112;11.622;2024-02-26T09:08:48;3.87;;;2.80;;
9657;SDS011;4867;48.112;11.622;2024-02-26T09:11:16;5.30;;;2.70;;
9657;SDS011;4867;48.112;11.622;2024-02-26T09:13:44;5.33;;;3.10;;
9657;SDS011;4867;48.112;11.622;2024-02-26T09:16:11;3.70;;;2.83;;
9657;SDS011;4867;48.112;11.622;2024-02-26T09:18:40;9.50;;;3.50;;
9657;SDS011;4867;48.112;11.622;2024-02-26T09:21:07;5.33;;;3.20;;
9657;SDS011;4867;48.112;11.622;2024-02-26T09:23:35;5.20;;;3.30;;
9657;SDS011;4867;48.112;11.622;2024-02-26T09:26:05;7.50;;;3.90;;
9657;SDS011;4867;48.112;11.622;2024-02-26T09:28:33;6.03;;;3.80;;
9657;SDS011;4867;48.112;11.622;2024-02-26T09:31:04;5.70;;;3.77;;
9657;SDS011;4867;48.112;11.622;2024-02-26T09:33:33;7.93;;;3.60;;
9657;SDS011;4867;48.112;11.622;2024-02-26T09:36:01;5.90;;;3.77;;
9657;SDS011;4867;48.112;11.622;2024-02-26T09:38:29;3.50;;;3.13;;
9657;SDS011;4867;48.112;11.622;2024-02-26T09:41:04;8.80;;;3.60;;
9657;SDS011;4867;48.112;11.622;2024-02-26T09:43:35;5.50;;;2.93;;
9657;SDS011;4867;48.112;11.622;2024-02-26T09:46:03;4.70;;;3.00;;
9657;SDS011;4867;48.112;11.622;2024-02-26T09:48:31;4.83;;;2.80;;
9657;SDS011;4867;48.112;11.622;2024-02-26T09:51:01;4.03;;;2.77;;
9657;SDS011;4867;48.112;11.622;2024-02-26T09:53:30;4.47;;;2.60;;
9657;SDS011;4867;48.112;11.622;2024-02-26T09:55:59;4.80;;;2.63;;
9657;SDS011;4867;48.112;11.622;2024-02-26T09:58:27;3.30;;;2.97;;
9657;SDS011;4867;48.112;11.622;2024-02-26T10:00:56;4.83;;;2.90;;
9657;SDS011;4867;48.112;11.622;2024-02-26T10:03:38;4.87;;;2.60;;
9657;SDS011;4867;48.112;11.622;2024-02-26T10:06:08;3.73;;;2.50;;
9657;SDS011;4867;48.112;11.622;2024-02-26T10:08:35;4.53;;;2.50;;
9657;SDS011;4867;48.112;11.622;2024-02-26T10:11:06;2.60;;;2.23;;
9657;SDS011;4867;48.112;11.622;2024-02-26T10:13:37;4.40;;;2.33;;
9657;SDS011;4867;48.112;11.622;2024-02-26T10:16:05;4.63;;;2.40;;
9657;SDS011;4867;48.112;11.622;2024-02-26T10:18:49;3.73;;;2.20;;
9657;SDS011;4867;48.112;11.622;2024-02-26T10:21:25;4.20;;;2.30;;
9657;SDS011;4867;48.112;11.622;2024-02-26T10:23:53;7.70;;;4.80;;
9657;SDS011;4867;48.112;11.622;2024-02-26T10:26:22;10.33;;;5.07;;
9657;SDS011;4867;48.112;11.622;2024-02-26T10:28:49;5.47;;;3.70;;
9657;SDS011;4867;48.112;11.622;2024-02-26T10:31:21;3.97;;;2.90;;
9657;SDS011;4867;48.112;11.622;2024-02-26T10:33:51;3.83;;;2.00;;
9657;SDS011;4867;48.112;11.622;2024-02-26T10:36:29;2.43;;;1.70;;
9657;SDS011;4867;48.112;11.622;2024-02-26T10:39:14;6.00;;;2.53;;
9657;SDS011;4867;48.112;11.622;2024-02-26T10:41:42;2.30;;;2.10;;
9657;SDS011;4867;48.112;11.622;2024-02-26T10:44:11;2.93;;;1.80;;
9657;SDS011;4867;48.112;11.622;2024-02-26T10:46:46;2.47;;;2.03;;
9657;SDS011;4867;48.112;11.622;2024-02-26T10:49:17;3.67;;;2.17;;
9657;SDS011;4867;48.112;11.622;2024-02-26T10:51:50;4.27;;;2.40;;
9657;SDS011;4867;48.112;11.622;2024-02-26T10:54:23;4.70;;;2.00;;
9657;SDS011;4867;48.112;11.622;2024-02-26T10:56:53;2.50;;;1.80;;
9657;SDS011;4867;48.112;11.622;2024-02-26T10:59:23;1.93;;;1.70;;
9657;SDS011;4867;48.112;11.622;2024-02-26T11:01:51;3.57;;;2.30;;
9657;SDS011;4867;48.112;11.622;2024-02-26T11:04:19;2.00;;;1.80;;
9657;SDS011;4867;48.112;11.622;2024-02-26T11:06:48;3.37;;;1.80;;
9657;SDS011;4867;48.112;11.622;2024-02-26T11:09:17;1.83;;;1.70;;
9657;SDS011;4867;48.112;11.622;2024-02-26T11:11:47;2.43;;;2.00;;
9657;SDS011;4867;48.112;11.622;2024-02-26T11:14:16;2.27;;;2.07;;
9657;SDS011;4867;48.112;11.622;2024-02-26T11:16:43;4.83;;;2.80;;
9657;SDS011;4867;48.112;11.622;2024-02-26T11:19:14;3.03;;;2.73;;
9657;SDS011;4867;48.112;11.622;2024-02-26T11:21:43;2.60;;;2.40;;
9657;SDS011;4867;48.112;11.622;2024-02-26T11:24:14;2.77;;;2.43;;
9657;SDS011;4867;48.112;11.622;2024-02-26T11:26:50;2.77;;;2.53;;
9657;SDS011;4867;48.112;11.622;2024-02-26T11:29:29;3.70;;;2.03;;
9657;SDS011;4867;48.112;11.622;2024-02-26T11:32:01;1.80;;;1.70;;
9657;SDS011;4867;48.112;11.622;2024-02-26T11:34:29;2.47;;;1.70;;
9657;SDS011;4867;48.112;11.622;2024-02-26T11:36:57;2.60;;;1.90;;
9657;SDS011;4867;48.112;11.622;2024-02-26T11:39:35;6.07;;;2.73;;
9657;SDS011;4867;48.112;11.622;2024-02-26T11:42:06;1.60;;;1.50;;
9657;SDS011;4867;48.112;11.622;2024-02-26T11:44:38;1.50;;;1.40;;
9657;SDS011;4867;48.112;11.622;2024-02-26T11:47:12;3.10;;;1.70;;
9657;SDS011;4867;48.112;11.622;2024-02-26T11:49:45;1.90;;;1.60;;
9657;SDS011;4867;48.112;11.622;2024-02-26T11:52:14;2.67;;;1.77;;
9657;SDS011;4867;48.112;11.622;2024-02-26T11:54:58;3.87;;;1.80;;
9657;SDS011;4867;48.112;11.622;2024-02-26T12:00:11;2.13;;;1.97;;
9657;SDS011;4867;48.112;11.622;2024-02-26T12:02:41;4.00;;;2.73;;
9657;SDS011;4867;48.112;11.622;2024-02-26T12:07:44;2.00;;;1.70;;
9657;SDS011;4867;48.112;11.622;2024-02-26T12:10:14;2.37;;;1.40;;
9657;SDS011;4867;48.112;11.622;2024-02-26T12:12:42;2.00;;;1.50;;
9657;SDS011;4867;48.112;11.622;2024-02-26T12:15:10;4.90;;;2.20;;
9657;SDS011;4867;48.112;11.622;2024-02-26T12:17:38;1.73;;;1.60;;
9657;SDS011;4867;48.112;11.622;2024-02-26T12:20:12;1.60;;;1.50;;
9657;SDS011;4867;48.112;11.622;2024-02-26T12:22:40;1.30;;;1.20;;
9657;SDS011;4867;48.112;11.622;2024-02-26T12:25:10;2.03;;;1.83;;
9657;SDS011;4867;48.112;11.622;2024-02-26T12:28:06;1.43;;;1.33;;
9657;SDS011;4867;48.112;11.622;2024-02-26T12:30:36;1.33;;;1.20;;
9657;SDS011;4867;48.112;11.622;2024-02-26T12:33:04;2.93;;;2.00;;
9657;SDS011;4867;48.112;11.622;2024-02-26T12:35:53;1.40;;;1.30;;
9657;SDS011;4867;48.112;11.622;2024-02-26T12:38:20;3.13;;;2.63;;
9657;SDS011;4867;48.112;11.622;2024-02-26T12:40:48;2.47;;;1.50;;
9657;SDS011;4867;48.112;11.622;2024-02-26T12:43:20;2.73;;;1.40;;
9657;SDS011;4867;48.112;11.622;2024-02-26T12:45:50;1.53;;;1.27;;
9657;SDS011;4867;48.112;11.622;2024-02-26T12:48:17;2.13;;;1.60;;
9657;SDS011;4867;48.112;11.622;2024-02-26T12:50:51;1.73;;;1.30;;
9657;SDS011;4867;48.112;11.622;2024-02-26T12:53:19;1.27;;;1.17;;
9657;SDS011;4867;48.112;11.622;2024-02-26T12:55:47;1.47;;;1.23;;
9657;SDS011;4867;48.112;11.622;2024-02-26T12:58:14;1.60;;;1.47;;
9657;SDS011;4867;48.112;11.622;2024-02-26T13:00:42;3.43;;;1.60;;
9657;SDS011;4867;48.112;11.622;2024-02-26T13:03:10;2.37;;;1.60;;
9657;SDS011;4867;48.112;11.622;2024-02-26T13:05:37;3.13;;;2.17;;
9657;SDS011;4867;48.112;11.622;2024-02-26T13:08:06;3.47;;;2.53;;
9657;SDS011;4867;48.112;11.622;2024-02-26T13:10:35;4.97;;;2.40;;
9657;SDS011;4867;48.112;11.622;2024-02-26T13:13:09;3.00;;;2.80;;
9657;SDS011;4867;48.112;11.622;2024-02-26T13:15:47;5.53;;;2.60;;
9657;SDS011;4867;48.112;11.622;2024-02-26T13:18:19;3.03;;;2.80;;
9657;SDS011;4867;48.112;11.622;2024-02-26T13:20:50;2.80;;;2.60;;
9657;SDS011;4867;48.112;11.622;2024-02-26T13:23:18;3.37;;;2.57;;
9657;SDS011;4867;48.112;11.622;2024-02-26T13:25:46;3.73;;;2.90;;
9657;SDS011;4867;48.112;11.622;2024-02-26T13:28:16;3.40;;;2.60;;
9657;SDS011;4867;48.112;11.622;2024-02-26T13:30:51;3.00;;;2.70;;
9657;SDS011;4867;48.112;11.622;2024-02-26T13:33:21;3.00;;;2.70;;
9657;SDS011;4867;48.112;11.622;2024-02-26T13:35:52;3.57;;;2.60;;
9657;SDS011;4867;48.112;11.622;2024-02-26T13:38:21;4.57;;;3.03;;
9657;SDS011;4867;48.112;11.622;2024-02-26T13:40:52;5.03;;;3.10;;
9657;SDS011;4867;48.112;11.622;2024-02-26T13:43:20;2.97;;;2.67;;
9657;SDS011;4867;48.112;11.622;2024-02-26T13:45:48;4.10;;;3.00;;
9657;SDS011;4867;48.112;11.622;2024-02-26T13:48:16;2.87;;;2.67;;
9657;SDS011;4867;48.112;11.622;2024-02-26T13:50:50;4.13;;;2.80;;
9657;SDS011;4867;48.112;11.622;2024-02-26T13:53:20;2.93;;;2.60;;
9657;SDS011;4867;48.112;11.622;2024-02-26T13:55:54;3.63;;;2.70;;
9657;SDS011;4867;48.112;11.622;2024-02-26T13:58:29;3.47;;;2.40;;
9657;SDS011;4867;48.112;11.622;2024-02-26T14:00:58;3.67;;;2.40;;
9657;SDS011;4867;48.112;11.622;2024-02-26T14:03:47;3.07;;;2.60;;
9657;SDS011;4867;48.112;11.622;2024-02-26T14:06:15;4.10;;;2.80;;
9657;SDS011;4867;48.112;11.622;2024-02-26T14:08:51;3.30;;;2.70;;
9657;SDS011;4867;48.112;11.622;2024-02-26T14:11:21;2.87;;;2.53;;
9657;SDS011;4867;48.112;11.622;2024-02-26T14:13:50;6.40;;;2.90;;
9657;SDS011;4867;48.112;11.622;2024-02-26T14:16:18;4.37;;;2.67;;
9657;SDS011;4867;48.112;11.622;2024-02-26T14:18:58;3.00;;;2.80;;
9657;SDS011;4867;48.112;11.622;2024-02-26T14:21:28;4.00;;;3.10;;
9657;SDS011;4867;48.112;11.622;2024-02-26T14:23:58;3.50;;;3.17;;
9657;SDS011;4867;48.112;11.622;2024-02-26T14:26:28;5.73;;;3.87;;
9657;SDS011;4867;48.112;11.622;2024-02-26T14:28:59;6.07;;;3.50;;
9657;SDS011;4867;48.112;11.622;2024-02-26T14:31:29;4.57;;;3.50;;
9657;SDS011;4867;48.112;11.622;2024-02-26T14:34:12;3.73;;;3.43;;
9657;SDS011;4867;48.112;11.622;2024-02-26T14:36:45;5.17;;;3.60;;
9657;SDS011;4867;48.112;11.622;2024-02-26T14:39:16;7.93;;;5.13;;
9657;SDS011;4867;48.112;11.622;2024-02-26T14:41:52;4.03;;;3.60;;
9657;SDS011;4867;48.112;11.622;2024-02-26T14:44:33;4.00;;;3.57;;
9657;SDS011;4867;48.112;11.622;2024-02-26T14:47:02;5.50;;;3.67;;
9657;SDS011;4867;48.112;11.622;2024-02-26T14:49:33;4.03;;;3.57;;
9657;SDS011;4867;48.112;11.622;2024-02-26T14:52:05;5.63;;;3.27;;
9657;SDS011;4867;48.112;11.622;2024-02-26T14:54:33;4.20;;;3.40;;
9657;SDS011;4867;48.112;11.622;2024-02-26T14:57:11;3.50;;;3.20;;
9657;SDS011;4867;48.112;11.622;2024-02-26T14:59:39;3.30;;;2.70;;
9657;SDS011;4867;48.112;11.622;2024-02-26T15:02:14;4.50;;;2.90;;
9657;SDS011;4867;48.112;11.622;2024-02-26T15:04:46;3.47;;;2.90;;
9657;SDS011;4867;48.112;11.622;2024-02-26T15:07:24;5.20;;;3.70;;
9657;SDS011;4867;48.112;11.622;2024-02-26T15:09:55;3.20;;;2.90;;
9657;SDS011;4867;48.112;11.622;2024-02-26T15:12:28;4.50;;;2.97;;
9657;SDS011;4867;48.112;11.622;2024-02-26T15:14:58;5.07;;;2.70;;
9657;SDS011;4867;48.112;11.622;2024-02-26T15:18:04;3.67;;;2.97;;